Time;durP1;ratioP1;P1;durP2;ratioP2;P2;SDS_P1;SDS_P2;PMS_P1;PMS_P2;Temp;Humidity;BMP_temperature;BMP_pressure;BME280_temperature;BME280_humidity;BME280_pressure;Samples;Min_cycle;Max_cycle;Signal;HPM_P1;HPM_P2
2023/02/13 00:01:52;;;;;;;183.33;103.67;;;;;;;;;;4391577;32;320593;-86
2023/02/13 00:04:19;;;;;;;188.00;97.43;;;;;;;;;;4381261;32;319583;-87
2023/02/13 00:06:46;;;;;;;181.50;98.13;;;;;;;;;;4391471;32;318421;-87
2023/02/13 00:09:13;;;;;;;153.50;85.60;;;;;;;;;;4381229;32;319235;-86
2023/02/13 00:11:40;;;;;;;140.23;78.43;;;;;;;;;;4391295;32;319577;-87
2023/02/13 00:14:07;;;;;;;133.13;72.90;;;;;;;;;;4391058;32;318624;-87
2023/02/13 00:16:35;;;;;;;136.87;79.60;;;;;;;;;;4393265;32;418363;-87
2023/02/13 00:19:02;;;;;;;156.13;89.83;;;;;;;;;;4405185;32;347369;-85
2023/02/13 00:21:29;;;;;;;145.67;83.70;;;;;;;;;;4395826;32;319406;-87
2023/02/13 00:23:56;;;;;;;139.37;77.30;;;;;;;;;;4406098;32;319438;-87
2023/02/13 00:26:23;;;;;;;93.40;53.97;;;;;;;;;;4394804;32;319092;-87
2023/02/13 00:28:49;;;;;;;94.13;56.13;;;;;;;;;;4404019;32;342994;-87
2023/02/13 00:31:18;;;;;;;94.03;57.50;;;;;;;;;;4395946;32;317741;-87
2023/02/13 00:33:46;;;;;;;104.80;59.50;;;;;;;;;;4404857;32;317796;-88
2023/02/13 00:36:15;;;;;;;106.63;58.07;;;;;;;;;;4395151;32;334842;-88
2023/02/13 00:38:42;;;;;;;85.93;51.40;;;;;;;;;;4405447;32;319576;-88
2023/02/13 00:41:10;;;;;;;87.60;49.57;;;;;;;;;;4396064;32;318731;-87
2023/02/13 00:43:37;;;;;;;81.43;50.97;;;;;;;;;;4404741;32;318609;-86
2023/02/13 00:46:05;;;;;;;106.03;58.77;;;;;;;;;;4405438;32;317565;-87
2023/02/13 00:48:33;;;;;;;120.57;70.60;;;;;;;;;;4394254;32;319646;-87
2023/02/13 00:51:03;;;;;;;85.73;51.63;;;;;;;;;;4405484;32;323045;-87
2023/02/13 00:53:30;;;;;;;84.23;50.23;;;;;;;;;;4394638;32;318103;-87
2023/02/13 00:55:57;;;;;;;63.73;39.97;;;;;;;;;;4404709;32;318198;-87
2023/02/13 00:58:24;;;;;;;56.50;33.30;;;;;;;;;;4395154;32;318360;-87
2023/02/13 01:00:52;;;;;;;58.90;33.90;;;;;;;;;;4404660;32;317573;-87
2023/02/13 01:03:20;;;;;;;59.67;35.30;;;;;;;;;;4393402;32;318277;-87
2023/02/13 01:05:47;;;;;;;58.87;34.37;;;;;;;;;;4403590;32;318514;-87
2023/02/13 01:08:17;;;;;;;70.00;40.27;;;;;;;;;;4394103;32;318379;-87
2023/02/13 01:10:46;;;;;;;83.27;46.37;;;;;;;;;;4404247;32;318455;-88
2023/02/13 01:13:14;;;;;;;80.00;46.60;;;;;;;;;;4395220;32;318235;-87
2023/02/13 01:15:41;;;;;;;81.03;44.20;;;;;;;;;;4403824;32;317394;-87
2023/02/13 01:18:09;;;;;;;73.00;42.90;;;;;;;;;;4403536;32;318052;-86
2023/02/13 01:20:36;;;;;;;73.03;39.93;;;;;;;;;;4406179;32;317159;-88
2023/02/13 01:23:03;;;;;;;73.40;39.17;;;;;;;;;;4405049;32;317588;-87
2023/02/13 01:25:31;;;;;;;64.97;38.93;;;;;;;;;;4395407;32;318435;-87
2023/02/13 01:27:58;;;;;;;69.50;41.60;;;;;;;;;;4407083;32;318208;-89
2023/02/13 01:30:25;;;;;;;76.30;41.53;;;;;;;;;;4397119;32;317647;-88
2023/02/13 01:32:52;;;;;;;73.67;43.40;;;;;;;;;;4405589;32;317539;-87
2023/02/13 01:35:18;;;;;;;77.63;43.43;;;;;;;;;;4395848;32;331865;-87
2023/02/13 01:37:46;;;;;;;77.07;43.00;;;;;;;;;;4406988;32;317645;-87
2023/02/13 01:40:16;;;;;;;70.97;42.47;;;;;;;;;;4396849;32;318213;-87
2023/02/13 01:42:44;;;;;;;63.47;39.43;;;;;;;;;;4406068;32;357507;-87
2023/02/13 01:45:23;;;;;;;73.50;42.97;;;;;;;;;;4395525;32;317390;-87
2023/02/13 01:47:54;;;;;;;65.00;40.50;;;;;;;;;;4407022;32;318307;-87
2023/02/13 01:50:24;;;;;;;62.33;38.53;;;;;;;;;;4397627;32;318890;-87
2023/02/13 01:52:55;;;;;;;63.57;37.97;;;;;;;;;;4404120;32;318601;-87
2023/02/13 01:55:23;;;;;;;57.57;37.67;;;;;;;;;;4394548;32;317565;-89
2023/02/13 01:57:54;;;;;;;64.40;38.53;;;;;;;;;;4403861;32;318359;-87
2023/02/13 02:00:22;;;;;;;79.17;41.73;;;;;;;;;;4394760;32;318400;-87
2023/02/13 02:02:53;;;;;;;70.77;41.53;;;;;;;;;;4403096;32;322975;-87
2023/02/13 02:05:21;;;;;;;75.00;44.43;;;;;;;;;;4392339;32;351711;-87
2023/02/13 02:07:48;;;;;;;74.77;44.70;;;;;;;;;;4402697;32;317630;-87
2023/02/13 02:10:18;;;;;;;83.53;46.40;;;;;;;;;;4394448;32;317991;-87
2023/02/13 02:12:50;;;;;;;90.20;49.27;;;;;;;;;;4403824;32;318038;-87
2023/02/13 02:15:20;;;;;;;87.30;50.47;;;;;;;;;;4394145;32;318166;-86
2023/02/13 02:17:47;;;;;;;105.17;56.93;;;;;;;;;;4402752;32;317599;-87
2023/02/13 02:20:26;;;;;;;93.73;53.27;;;;;;;;;;4391909;32;348013;-86
2023/02/13 02:23:26;;;;;;;96.37;50.70;;;;;;;;;;4403875;32;318273;-87
2023/02/13 02:26:27;;;;;;;88.00;51.27;;;;;;;;;;4380281;32;418274;-87
2023/02/13 02:29:34;;;;;;;108.83;57.60;;;;;;;;;;4389692;32;418533;-87
2023/02/13 02:32:21;;;;;;;96.37;53.70;;;;;;;;;;4383356;32;419575;-86
2023/02/13 02:34:56;;;;;;;95.93;56.00;;;;;;;;;;4390040;32;418349;-87
2023/02/13 02:37:46;;;;;;;99.07;55.87;;;;;;;;;;4392609;32;317536;-87
2023/02/13 02:40:25;;;;;;;107.00;57.17;;;;;;;;;;4391865;32;318552;-86
2023/02/13 02:43:06;;;;;;;92.63;50.40;;;;;;;;;;4403274;32;318644;-86
2023/02/13 02:45:40;;;;;;;92.40;50.60;;;;;;;;;;4389976;32;410128;-87
2023/02/13 02:51:06;;;;;;;89.90;51.90;;;;;;;;;;4391843;32;389128;-86
2023/02/13 02:53:39;;;;;;;86.70;54.17;;;;;;;;;;4389676;32;419599;-87
2023/02/13 02:56:11;;;;;;;92.77;55.13;;;;;;;;;;4403702;32;318345;-86
2023/02/13 03:07:15;;;;;;;103.83;56.50;;;;;;;;;;4356080;32;317514;-86
2023/02/13 03:15:22;;;;;;;105.63;57.10;;;;;;;;;;4391876;32;335834;-86
2023/02/13 03:23:40;;;;;;;197.50;95.43;;;;;;;;;;4393445;32;319355;-87
2023/02/13 03:26:48;;;;;;;139.20;69.87;;;;;;;;;;4401442;32;319320;-87
2023/02/13 03:32:15;;;;;;;136.33;71.23;;;;;;;;;;4398471;32;318572;-86
2023/02/13 03:37:55;;;;;;;142.70;71.43;;;;;;;;;;4390036;32;389996;-87
2023/02/13 03:40:28;;;;;;;139.33;73.00;;;;;;;;;;4392843;32;320466;-86
2023/02/13 03:43:03;;;;;;;140.83;73.63;;;;;;;;;;4402771;32;318827;-86
2023/02/13 03:45:52;;;;;;;129.23;66.57;;;;;;;;;;4391810;32;318812;-86
2023/02/13 03:51:24;;;;;;;118.47;62.87;;;;;;;;;;4330040;32;319615;-87
2023/02/13 03:53:57;;;;;;;148.30;75.23;;;;;;;;;;4389566;32;319459;-86
2023/02/13 03:59:22;;;;;;;110.00;62.87;;;;;;;;;;4392093;32;343561;-87
2023/02/13 04:01:56;;;;;;;124.33;66.87;;;;;;;;;;4402149;32;319074;-87
2023/02/13 04:04:28;;;;;;;158.50;78.13;;;;;;;;;;4392418;32;319394;-87
2023/02/13 04:07:00;;;;;;;211.00;91.63;;;;;;;;;;4402529;32;346680;-87
2023/02/13 04:09:30;;;;;;;214.47;95.50;;;;;;;;;;4393008;32;319531;-87
2023/02/13 04:12:06;;;;;;;154.10;74.40;;;;;;;;;;4403157;32;319365;-87
2023/02/13 04:14:38;;;;;;;111.17;62.70;;;;;;;;;;4396124;32;318600;-87
2023/02/13 04:17:08;;;;;;;118.87;62.07;;;;;;;;;;4406220;32;338221;-87
2023/02/13 04:19:35;;;;;;;98.83;55.83;;;;;;;;;;4393784;32;418410;-86
2023/02/13 04:22:02;;;;;;;93.67;51.63;;;;;;;;;;4406353;32;318357;-87
2023/02/13 04:24:31;;;;;;;90.97;53.77;;;;;;;;;;4394514;32;318537;-86
2023/02/13 04:26:58;;;;;;;108.97;62.33;;;;;;;;;;4405468;32;317819;-87
2023/02/13 04:29:26;;;;;;;122.70;67.23;;;;;;;;;;4395293;32;319398;-87
2023/02/13 04:31:53;;;;;;;126.37;70.03;;;;;;;;;;4404157;32;319793;-87
2023/02/13 04:34:20;;;;;;;130.43;71.87;;;;;;;;;;4395239;32;319971;-87
2023/02/13 04:36:47;;;;;;;140.30;77.23;;;;;;;;;;4404847;32;319514;-87
2023/02/13 04:39:13;;;;;;;135.57;78.67;;;;;;;;;;4395131;32;319316;-86
2023/02/13 04:41:42;;;;;;;161.70;87.47;;;;;;;;;;4404850;32;318628;-87
2023/02/13 04:44:09;;;;;;;146.37;82.73;;;;;;;;;;4395405;32;318864;-87
2023/02/13 04:46:35;;;;;;;155.03;85.77;;;;;;;;;;4405500;32;319554;-87
2023/02/13 04:49:02;;;;;;;173.07;88.73;;;;;;;;;;4404898;32;319315;-86
2023/02/13 04:51:29;;;;;;;146.80;80.73;;;;;;;;;;4393951;32;319244;-87
2023/02/13 04:53:56;;;;;;;150.23;79.70;;;;;;;;;;4395587;32;342619;-86
2023/02/13 04:56:22;;;;;;;149.83;81.73;;;;;;;;;;4394508;32;319523;-87
2023/02/13 04:58:51;;;;;;;146.37;79.83;;;;;;;;;;4404664;32;319505;-87
2023/02/13 05:01:18;;;;;;;143.23;75.27;;;;;;;;;;4395441;32;319411;-87
2023/02/13 05:03:45;;;;;;;154.63;80.90;;;;;;;;;;4403952;32;321040;-86
2023/02/13 05:06:12;;;;;;;148.53;79.77;;;;;;;;;;4394405;32;319569;-87
2023/02/13 05:08:39;;;;;;;140.43;77.97;;;;;;;;;;4404359;32;318747;-87
2023/02/13 05:11:05;;;;;;;170.87;88.93;;;;;;;;;;4404755;32;319822;-86
2023/02/13 05:13:32;;;;;;;193.40;100.80;;;;;;;;;;4394559;32;319318;-86
2023/02/13 05:16:01;;;;;;;173.67;93.80;;;;;;;;;;4404808;32;320472;-87
2023/02/13 05:18:27;;;;;;;178.60;96.13;;;;;;;;;;4394636;32;319691;-87
2023/02/13 05:23:39;;;;;;;195.67;98.23;;;;;;;;;;4392075;32;388948;-87
2023/02/13 05:26:06;;;;;;;185.67;96.30;;;;;;;;;;4403027;32;319420;-86
2023/02/13 05:31:18;;;;;;;201.50;106.97;;;;;;;;;;4393347;32;349601;-87
2023/02/13 05:33:45;;;;;;;192.70;103.13;;;;;;;;;;4403365;32;320700;-87
2023/02/13 05:36:12;;;;;;;201.20;100.60;;;;;;;;;;4394008;32;320820;-86
2023/02/13 05:38:40;;;;;;;201.23;98.23;;;;;;;;;;4405343;32;320650;-86
2023/02/13 05:41:07;;;;;;;210.63;105.20;;;;;;;;;;4404435;32;319479;-87
2023/02/13 05:43:33;;;;;;;218.73;117.47;;;;;;;;;;4391280;32;419651;-87
2023/02/13 05:46:05;;;;;;;221.20;123.90;;;;;;;;;;4403305;32;320523;-86
2023/02/13 05:48:33;;;;;;;220.27;121.73;;;;;;;;;;4391129;32;358675;-86
2023/02/13 05:51:00;;;;;;;250.40;137.73;;;;;;;;;;4403729;32;319758;-88
2023/02/13 05:53:28;;;;;;;237.23;126.33;;;;;;;;;;4393880;32;320447;-87
2023/02/13 05:55:55;;;;;;;210.30;116.90;;;;;;;;;;4402511;32;320519;-86
2023/02/13 05:58:22;;;;;;;380.77;169.40;;;;;;;;;;4392873;32;353654;-86
2023/02/13 06:00:49;;;;;;;253.63;130.30;;;;;;;;;;4403163;32;322922;-86
2023/02/13 06:03:16;;;;;;;246.37;128.20;;;;;;;;;;4393260;32;320542;-86
2023/02/13 06:05:44;;;;;;;239.07;122.83;;;;;;;;;;4403693;32;319947;-87
2023/02/13 06:08:11;;;;;;;238.50;126.63;;;;;;;;;;4391324;32;349358;-86
2023/02/13 06:10:38;;;;;;;236.80;126.53;;;;;;;;;;4403390;32;320578;-87
2023/02/13 06:13:05;;;;;;;240.83;126.17;;;;;;;;;;4404199;32;320835;-87
2023/02/13 06:15:32;;;;;;;240.03;131.63;;;;;;;;;;4395526;32;320852;-87
2023/02/13 06:17:58;;;;;;;252.80;135.67;;;;;;;;;;4405508;32;320854;-87
2023/02/13 06:20:25;;;;;;;286.53;153.43;;;;;;;;;;4392989;32;320455;-87
2023/02/13 06:22:56;;;;;;;281.93;146.70;;;;;;;;;;4402711;32;320147;-87
2023/02/13 06:25:23;;;;;;;267.77;148.93;;;;;;;;;;4391849;32;320560;-86
2023/02/13 06:27:50;;;;;;;246.07;127.27;;;;;;;;;;4402389;32;319599;-87
2023/02/13 06:30:18;;;;;;;262.47;140.47;;;;;;;;;;4393942;32;320538;-86
2023/02/13 06:32:47;;;;;;;236.63;131.63;;;;;;;;;;4402207;32;320507;-86
2023/02/13 06:35:14;;;;;;;231.13;129.23;;;;;;;;;;4392165;32;354637;-86
2023/02/13 06:37:43;;;;;;;261.43;141.77;;;;;;;;;;4403492;32;319591;-86
2023/02/13 06:40:13;;;;;;;233.80;130.07;;;;;;;;;;4392547;32;320748;-86
2023/02/13 06:42:40;;;;;;;260.73;141.57;;;;;;;;;;4402931;32;319887;-87
2023/02/13 06:45:07;;;;;;;267.80;140.30;;;;;;;;;;4402546;32;320325;-86
2023/02/13 06:47:34;;;;;;;235.57;133.67;;;;;;;;;;4390034;32;419274;-86
2023/02/13 06:50:01;;;;;;;207.80;113.83;;;;;;;;;;4402143;32;320499;-85
2023/02/13 06:52:29;;;;;;;178.87;99.68;;;;;;;;;;4392177;32;327194;-85
2023/02/13 06:54:58;;;;;;;182.50;110.73;;;;;;;;;;4402904;32;319453;-85
2023/02/13 06:57:28;;;;;;;190.13;103.90;;;;;;;;;;4392692;32;324701;-86
2023/02/13 06:59:55;;;;;;;175.17;103.20;;;;;;;;;;4401363;32;320760;-85
2023/02/13 07:02:22;;;;;;;191.57;99.67;;;;;;;;;;4393063;32;320293;-86
2023/02/13 07:04:49;;;;;;;166.83;100.10;;;;;;;;;;4401503;32;350553;-86
2023/02/13 07:07:16;;;;;;;156.60;93.60;;;;;;;;;;4392581;32;320407;-88
2023/02/13 07:09:42;;;;;;;165.00;100.33;;;;;;;;;;4402449;32;318453;-87
2023/02/13 07:12:09;;;;;;;195.33;107.37;;;;;;;;;;4390892;32;320713;-86
2023/02/13 07:14:37;;;;;;;162.33;93.07;;;;;;;;;;4403452;32;345056;-86
2023/02/13 07:17:04;;;;;;;162.00;78.20;;;;;;;;;;4400910;32;318480;-87
2023/02/13 07:19:32;;;;;;;183.60;81.33;;;;;;;;;;4392684;32;319418;-87
2023/02/13 07:21:59;;;;;;;163.57;75.97;;;;;;;;;;4402441;32;319523;-86
2023/02/13 07:24:26;;;;;;;131.07;65.83;;;;;;;;;;4392899;32;318469;-86
2023/02/13 07:26:52;;;;;;;134.13;67.33;;;;;;;;;;4402965;32;318601;-87
2023/02/13 07:29:19;;;;;;;114.20;64.47;;;;;;;;;;4391308;32;319363;-86
2023/02/13 07:31:47;;;;;;;141.13;70.87;;;;;;;;;;4401579;32;340093;-86
2023/02/13 07:34:14;;;;;;;125.53;71.77;;;;;;;;;;4390978;32;319168;-86
2023/02/13 07:36:41;;;;;;;120.27;69.23;;;;;;;;;;4401572;32;336737;-86
2023/02/13 07:39:08;;;;;;;108.10;61.90;;;;;;;;;;4402354;32;319166;-85
2023/02/13 07:41:34;;;;;;;112.57;62.00;;;;;;;;;;4389084;32;418801;-86
2023/02/13 07:44:01;;;;;;;186.60;97.17;;;;;;;;;;4400840;32;318520;-86
2023/02/13 07:46:28;;;;;;;91.07;50.77;;;;;;;;;;4390919;32;348403;-85
2023/02/13 07:48:56;;;;;;;145.37;67.67;;;;;;;;;;4404788;32;318372;-86
2023/02/13 07:51:24;;;;;;;301.73;119.27;;;;;;;;;;4393785;32;347607;-85
2023/02/13 07:53:51;;;;;;;114.97;56.77;;;;;;;;;;4404970;32;319525;-86
2023/02/13 07:56:18;;;;;;;143.17;63.47;;;;;;;;;;4394525;32;319577;-86
2023/02/13 07:58:45;;;;;;;262.47;100.93;;;;;;;;;;4403482;32;357724;-86
2023/02/13 08:01:14;;;;;;;186.83;78.47;;;;;;;;;;4394376;32;320609;-86
2023/02/13 08:03:41;;;;;;;185.43;75.10;;;;;;;;;;4404112;32;349220;-86
2023/02/13 08:06:10;;;;;;;107.47;47.13;;;;;;;;;;4403564;32;342761;-86
2023/02/13 08:08:37;;;;;;;67.63;38.80;;;;;;;;;;4391627;32;418095;-86
2023/02/13 08:14:00;;;;;;;80.47;44.43;;;;;;;;;;4363313;32;387575;-86
2023/02/13 08:16:27;;;;;;;74.30;41.53;;;;;;;;;;4394342;32;317492;-86
2023/02/13 08:18:53;;;;;;;81.87;45.57;;;;;;;;;;4403725;32;318552;-85
2023/02/13 08:21:21;;;;;;;76.17;47.83;;;;;;;;;;4392814;32;318302;-86
2023/02/13 08:23:50;;;;;;;64.70;41.23;;;;;;;;;;4402906;32;318454;-86
2023/02/13 08:26:17;;;;;;;125.90;64.13;;;;;;;;;;4392803;32;318567;-86
2023/02/13 08:28:44;;;;;;;133.80;66.63;;;;;;;;;;4402655;32;318808;-86
2023/02/13 08:31:12;;;;;;;98.93;55.80;;;;;;;;;;4390893;32;328764;-87
2023/02/13 08:33:40;;;;;;;105.27;55.57;;;;;;;;;;4404071;32;317696;-88
2023/02/13 08:36:07;;;;;;;68.90;42.87;;;;;;;;;;4404828;32;319538;-89
2023/02/13 08:38:36;;;;;;;65.93;39.67;;;;;;;;;;4391263;32;415478;-89
2023/02/13 08:41:02;;;;;;;69.53;41.10;;;;;;;;;;4403790;32;317406;-89
2023/02/13 08:43:29;;;;;;;74.03;45.47;;;;;;;;;;4394324;32;318456;-87
2023/02/13 08:45:58;;;;;;;80.40;47.57;;;;;;;;;;4405036;32;318488;-89
2023/02/13 08:48:25;;;;;;;75.17;43.43;;;;;;;;;;4395401;32;317609;-88
2023/02/13 08:50:52;;;;;;;86.47;47.73;;;;;;;;;;4403134;32;346228;-88
2023/02/13 08:53:19;;;;;;;81.00;51.03;;;;;;;;;;4394438;32;339194;-88
2023/02/13 08:55:53;;;;;;;87.00;50.50;;;;;;;;;;4405154;32;318537;-90
2023/02/13 08:58:20;;;;;;;113.07;62.43;;;;;;;;;;4395475;32;317970;-90
2023/02/13 09:00:47;;;;;;;73.33;46.70;;;;;;;;;;4404931;32;343438;-90
2023/02/13 09:03:14;;;;;;;77.13;46.10;;;;;;;;;;4395671;32;317618;-90
2023/02/13 09:05:41;;;;;;;101.10;55.07;;;;;;;;;;4403901;32;338051;-89
2023/02/13 09:08:10;;;;;;;89.83;52.77;;;;;;;;;;4404703;32;318513;-88
2023/02/13 09:10:37;;;;;;;83.73;52.30;;;;;;;;;;4377829;32;421022;-89
2023/02/13 09:13:06;;;;;;;104.70;59.47;;;;;;;;;;4401678;32;317146;-88
2023/02/13 09:15:33;;;;;;;95.23;56.47;;;;;;;;;;4390364;32;420470;-89
2023/02/13 09:18:00;;;;;;;96.83;53.00;;;;;;;;;;4404045;32;317526;-89
2023/02/13 09:20:27;;;;;;;96.00;51.50;;;;;;;;;;4395511;32;318382;-89
2023/02/13 09:22:55;;;;;;;80.53;48.47;;;;;;;;;;4404613;32;317446;-89
2023/02/13 09:25:22;;;;;;;85.73;49.60;;;;;;;;;;4393947;32;317619;-88
2023/02/13 09:27:49;;;;;;;100.77;57.63;;;;;;;;;;4404537;32;318304;-87
2023/02/13 09:30:22;;;;;;;76.83;46.27;;;;;;;;;;4394425;32;318644;-89
2023/02/13 09:32:49;;;;;;;83.63;49.97;;;;;;;;;;4404249;32;317544;-89
2023/02/13 09:35:16;;;;;;;72.50;45.33;;;;;;;;;;4393857;32;318303;-89
2023/02/13 09:37:44;;;;;;;82.43;48.30;;;;;;;;;;4403586;32;317702;-88
2023/02/13 09:40:18;;;;;;;74.20;43.30;;;;;;;;;;4394141;32;318296;-89
2023/02/13 09:42:45;;;;;;;81.50;48.13;;;;;;;;;;4404002;32;317501;-90
2023/02/13 09:45:14;;;;;;;72.70;45.63;;;;;;;;;;4393560;32;318267;-87
2023/02/13 09:47:44;;;;;;;62.13;42.53;;;;;;;;;;4402509;32;317715;-88
2023/02/13 09:50:14;;;;;;;64.23;37.83;;;;;;;;;;4394132;32;318363;-89
2023/02/13 09:52:44;;;;;;;66.90;41.57;;;;;;;;;;4403028;32;318259;-89
2023/02/13 09:55:16;;;;;;;59.00;35.10;;;;;;;;;;4394726;32;318291;-89
2023/02/13 09:57:47;;;;;;;65.30;38.00;;;;;;;;;;4404612;32;317617;-89
2023/02/13 10:00:20;;;;;;;69.17;41.23;;;;;;;;;;4394947;32;317604;-88
2023/02/13 10:03:03;;;;;;;77.97;43.20;;;;;;;;;;4405884;32;318232;-89
2023/02/13 10:05:45;;;;;;;69.53;41.03;;;;;;;;;;4397776;32;318180;-89
2023/02/13 10:08:23;;;;;;;78.80;42.20;;;;;;;;;;4398894;32;333589;-91
2023/02/13 10:10:53;;;;;;;61.27;38.67;;;;;;;;;;4407233;32;318220;-88
2023/02/13 10:13:37;;;;;;;61.60;38.23;;;;;;;;;;4396294;32;317587;-89
2023/02/13 10:16:09;;;;;;;76.40;37.93;;;;;;;;;;4404470;32;317735;-89
2023/02/13 10:18:46;;;;;;;66.67;40.63;;;;;;;;;;4389595;32;418267;-89
2023/02/13 10:21:14;;;;;;;64.13;38.27;;;;;;;;;;4394383;32;318465;-90
2023/02/13 10:23:46;;;;;;;65.83;36.60;;;;;;;;;;4404392;32;317572;-89
2023/02/13 10:26:20;;;;;;;54.03;34.73;;;;;;;;;;4394798;32;318483;-89
2023/02/13 10:30:03;;;;;;;62.03;35.90;;;;;;;;;;4404353;32;318098;-91
2023/02/13 10:31:40;;;;;;;50.10;32.13;;;;;;;;;;4391277;32;389183;-90
2023/02/13 10:34:14;;;;;;;54.37;32.00;;;;;;;;;;4404745;32;317324;-89
2023/02/13 10:36:44;;;;;;;54.97;34.53;;;;;;;;;;4390330;32;418225;-90
2023/02/13 10:39:22;;;;;;;50.17;33.97;;;;;;;;;;4397169;32;317502;-90
2023/02/13 10:41:52;;;;;;;49.17;32.63;;;;;;;;;;4405128;32;317452;-91
2023/02/13 10:44:44;;;;;;;59.97;36.00;;;;;;;;;;4396547;32;317461;-90
2023/02/13 10:47:24;;;;;;;51.43;32.97;;;;;;;;;;4394208;32;317513;-90
2023/02/13 10:50:18;;;;;;;62.00;34.40;;;;;;;;;;4404597;32;317560;-89
2023/02/13 10:52:55;;;;;;;47.57;31.83;;;;;;;;;;4375976;32;417955;-90
2023/02/13 10:55:33;;;;;;;48.33;31.13;;;;;;;;;;4392220;32;317685;-90
2023/02/13 10:58:10;;;;;;;42.43;28.97;;;;;;;;;;4406515;32;317775;-88
2023/02/13 11:00:42;;;;;;;61.57;33.90;;;;;;;;;;4393043;32;417570;-89
2023/02/13 11:03:17;;;;;;;48.40;28.60;;;;;;;;;;4399374;32;318246;-86
2023/02/13 11:05:45;;;;;;;53.07;31.57;;;;;;;;;;4405507;32;317642;-89
2023/02/13 11:08:18;;;;;;;52.33;33.80;;;;;;;;;;4392884;32;318293;-90
2023/02/13 11:10:45;;;;;;;46.67;27.93;;;;;;;;;;4404059;32;318465;-88
2023/02/13 11:13:17;;;;;;;46.50;28.87;;;;;;;;;;4394127;32;317735;-88
2023/02/13 11:16:00;;;;;;;50.97;30.60;;;;;;;;;;4404040;32;317555;-89
2023/02/13 11:18:29;;;;;;;43.03;27.40;;;;;;;;;;4388265;32;318370;-91
2023/02/13 11:21:06;;;;;;;47.50;29.00;;;;;;;;;;4404193;32;317493;-88
2023/02/13 11:23:40;;;;;;;48.37;27.40;;;;;;;;;;4398641;32;318422;-87
2023/02/13 11:26:10;;;;;;;48.20;28.37;;;;;;;;;;4408968;32;317503;-90
2023/02/13 11:28:39;;;;;;;34.20;22.13;;;;;;;;;;4396317;32;417774;-89
2023/02/13 11:31:24;;;;;;;49.20;27.03;;;;;;;;;;4408825;32;317438;-89
2023/02/13 11:33:51;;;;;;;45.97;23.03;;;;;;;;;;4395230;32;418386;-89
2023/02/13 11:36:26;;;;;;;66.57;33.80;;;;;;;;;;4399096;32;320470;-89
2023/02/13 11:39:02;;;;;;;76.27;35.73;;;;;;;;;;4410055;32;318140;-89
2023/02/13 11:41:29;;;;;;;59.47;31.97;;;;;;;;;;4398340;32;318144;-92
2023/02/13 11:44:01;;;;;;;33.00;22.23;;;;;;;;;;4407206;32;347361;-89
2023/02/13 11:46:29;;;;;;;195.67;78.17;;;;;;;;;;4396513;32;318345;-89
2023/02/13 11:48:58;;;;;;;147.77;70.87;;;;;;;;;;4408143;32;319590;-89
2023/02/13 11:51:38;;;;;;;37.97;24.57;;;;;;;;;;4395815;32;320181;-90
2023/02/13 11:54:06;;;;;;;27.20;18.70;;;;;;;;;;4408609;32;318735;-88
2023/02/13 11:56:48;;;;;;;41.83;23.33;;;;;;;;;;4397646;32;319178;-89
2023/02/13 11:59:16;;;;;;;43.73;27.77;;;;;;;;;;4396601;32;358567;-90
2023/02/13 12:01:48;;;;;;;33.77;19.50;;;;;;;;;;4394272;32;318632;-89
2023/02/13 12:04:16;;;;;;;28.83;18.80;;;;;;;;;;4395363;32;319276;-89
2023/02/13 12:07:00;;;;;;;29.23;18.30;;;;;;;;;;4406946;32;319121;-89
2023/02/13 12:09:28;;;;;;;29.90;18.43;;;;;;;;;;4397082;32;318680;-88
2023/02/13 12:11:58;;;;;;;48.50;36.47;;;;;;;;;;4406803;32;318200;-90
2023/02/13 12:14:29;;;;;;;25.20;18.77;;;;;;;;;;4396956;32;318762;-92
2023/02/13 12:17:00;;;;;;;26.90;16.40;;;;;;;;;;4407479;32;318632;-91
2023/02/13 12:19:31;;;;;;;28.73;18.33;;;;;;;;;;4397800;32;318596;-91
2023/02/13 12:22:15;;;;;;;27.70;17.77;;;;;;;;;;4408480;32;318397;-92
2023/02/13 12:25:09;;;;;;;30.53;17.17;;;;;;;;;;4395165;32;414516;-90
2023/02/13 12:27:49;;;;;;;28.30;20.77;;;;;;;;;;4390643;32;417935;-89
2023/02/13 12:31:04;;;;;;;32.77;19.77;;;;;;;;;;4396485;32;318431;-90
2023/02/13 12:33:54;;;;;;;38.57;21.50;;;;;;;;;;4397660;32;319510;-91
2023/02/13 12:36:25;;;;;;;36.03;21.57;;;;;;;;;;4396592;32;319462;-90
2023/02/13 12:39:10;;;;;;;29.47;20.47;;;;;;;;;;4405729;32;358255;-90
2023/02/13 12:41:49;;;;;;;25.50;17.67;;;;;;;;;;4392938;32;417646;-91
2023/02/13 12:44:29;;;;;;;51.80;28.57;;;;;;;;;;4382650;32;319329;-91
2023/02/13 12:47:06;;;;;;;41.03;23.10;;;;;;;;;;4405829;32;318612;-90
2023/02/13 12:50:21;;;;;;;24.23;15.30;;;;;;;;;;4396582;32;319180;-91
2023/02/13 12:53:00;;;;;;;30.23;15.83;;;;;;;;;;4346040;32;421440;-90
2023/02/13 12:55:53;;;;;;;25.97;14.50;;;;;;;;;;4393023;32;317717;-89
2023/02/13 12:58:36;;;;;;;28.80;17.73;;;;;;;;;;4394713;32;317590;-89
2023/02/13 13:01:14;;;;;;;19.70;14.77;;;;;;;;;;4405056;32;317521;-89
2023/02/13 13:03:49;;;;;;;25.27;15.37;;;;;;;;;;4393461;32;418607;-92
2023/02/13 13:06:35;;;;;;;38.40;20.50;;;;;;;;;;4397211;32;318543;-90
2023/02/13 13:09:28;;;;;;;35.87;21.07;;;;;;;;;;4407424;32;317447;-92
2023/02/13 13:12:18;;;;;;;21.97;14.90;;;;;;;;;;4392826;32;418033;-92
2023/02/13 13:14:53;;;;;;;29.13;18.80;;;;;;;;;;4391894;32;414521;-89
2023/02/13 13:17:34;;;;;;;21.97;15.70;;;;;;;;;;4397891;32;317550;-89
2023/02/13 13:20:16;;;;;;;21.37;14.97;;;;;;;;;;4407273;32;318584;-91
2023/02/13 13:22:50;;;;;;;38.37;25.47;;;;;;;;;;4393154;32;416573;-91
2023/02/13 13:25:25;;;;;;;18.57;13.73;;;;;;;;;;4396577;32;318114;-90
2023/02/13 13:27:59;;;;;;;21.00;13.83;;;;;;;;;;4404133;32;317698;-89
2023/02/13 13:30:28;;;;;;;22.63;13.57;;;;;;;;;;4394339;32;343412;-88
2023/02/13 13:33:02;;;;;;;26.37;16.97;;;;;;;;;;4405793;32;317606;-89
2023/02/13 13:35:30;;;;;;;24.93;17.30;;;;;;;;;;4394969;32;318378;-89
2023/02/13 13:38:05;;;;;;;20.93;14.30;;;;;;;;;;4406194;32;318079;-90
2023/02/13 13:40:43;;;;;;;19.43;12.90;;;;;;;;;;4396319;32;318336;-89
2023/02/13 13:43:21;;;;;;;16.47;10.83;;;;;;;;;;4391982;32;317663;-87
2023/02/13 13:45:57;;;;;;;23.87;16.97;;;;;;;;;;4406839;32;318536;-91
2023/02/13 13:48:40;;;;;;;28.83;16.37;;;;;;;;;;4396285;32;317632;-90
2023/02/13 13:51:08;;;;;;;19.43;14.40;;;;;;;;;;4406432;32;317525;-90
2023/02/13 13:53:37;;;;;;;25.40;13.60;;;;;;;;;;4394552;32;418441;-90
2023/02/13 13:56:08;;;;;;;23.27;13.50;;;;;;;;;;4406334;32;317995;-91
2023/02/13 13:58:41;;;;;;;24.80;13.13;;;;;;;;;;4394510;32;417045;-90
2023/02/13 14:01:19;;;;;;;21.20;12.13;;;;;;;;;;4404102;32;318118;-88
2023/02/13 14:03:47;;;;;;;14.37;10.60;;;;;;;;;;4393591;32;413628;-90
2023/02/13 14:06:16;;;;;;;24.47;12.40;;;;;;;;;;4397696;32;318355;-90
2023/02/13 14:09:09;;;;;;;20.03;13.30;;;;;;;;;;4410304;32;317750;-91
2023/02/13 14:11:43;;;;;;;18.20;11.70;;;;;;;;;;4394063;32;418416;-91
2023/02/13 14:14:49;;;;;;;18.43;12.90;;;;;;;;;;4394918;32;317808;-90
2023/02/13 14:17:54;;;;;;;20.87;13.80;;;;;;;;;;4394996;32;317705;-89
2023/02/13 14:20:34;;;;;;;20.37;12.53;;;;;;;;;;4395068;32;318664;-90
2023/02/13 14:23:14;;;;;;;21.07;12.23;;;;;;;;;;4404687;32;318724;-90
2023/02/13 14:25:41;;;;;;;17.47;12.00;;;;;;;;;;4393362;32;418052;-90
2023/02/13 14:28:21;;;;;;;20.93;12.73;;;;;;;;;;4405395;32;318309;-90
2023/02/13 14:30:50;;;;;;;22.13;11.83;;;;;;;;;;4392794;32;416522;-90
2023/02/13 14:33:30;;;;;;;20.23;12.00;;;;;;;;;;4395470;32;317774;-90
2023/02/13 14:36:02;;;;;;;36.60;16.20;;;;;;;;;;4405666;32;333532;-92
2023/02/13 14:38:30;;;;;;;28.30;15.03;;;;;;;;;;4394892;32;318268;-87
2023/02/13 14:40:57;;;;;;;25.17;14.83;;;;;;;;;;4404849;32;317371;-90
2023/02/13 14:43:47;;;;;;;23.63;14.60;;;;;;;;;;4395146;32;339208;-90
2023/02/13 14:46:34;;;;;;;22.77;14.03;;;;;;;;;;4395177;32;318663;-90
2023/02/13 14:49:08;;;;;;;57.43;20.57;;;;;;;;;;4405777;32;319256;-90
2023/02/13 14:51:38;;;;;;;27.17;14.93;;;;;;;;;;4385296;32;419781;-89
2023/02/13 14:54:09;;;;;;;22.93;14.87;;;;;;;;;;4404997;32;318463;-91
2023/02/13 14:56:39;;;;;;;26.43;15.60;;;;;;;;;;4392758;32;418468;-91
2023/02/13 14:59:12;;;;;;;33.20;14.80;;;;;;;;;;4405779;32;341259;-92
2023/02/13 15:01:45;;;;;;;39.17;16.73;;;;;;;;;;4378993;32;421162;-93
2023/02/13 15:04:19;;;;;;;21.97;14.03;;;;;;;;;;4394446;32;319565;-93
2023/02/13 15:06:48;;;;;;;25.33;15.57;;;;;;;;;;4405583;32;318306;-94
2023/02/13 15:09:23;;;;;;;25.00;15.47;;;;;;;;;;4382707;32;348136;-92